Weather reports worldwide

Advertisment
Paganella, Italy (16022): temperature & dewpoint: 11.10.2018 08:00:00 - 17.10.2018 08:00:00 (CEST)Paganella, Italy (16022): wind speed: 11.10.2018 08:00:00 - 17.10.2018 08:00:00 (CEST)Paganella, Italy (16022): wind direction: 11.10.2018 08:00:00 - 17.10.2018 08:00:00 (CEST)Paganella, Italy (16022): visibility: 11.10.2018 08:00:00 - 17.10.2018 08:00:00 (CEST)Paganella, Italy (16022): sunshine duration: 11.10.2018 08:00:00 - 17.10.2018 08:00:00 (CEST)
Date & Time tt [°C] td [°C] ff [km/h] ff [kn] dd vv [km] sd [min]
17.10.2018 08:00:00 - - - - - - -
17.10.2018 07:00:00 3,9 1,1 0 0 N 20 -
17.10.2018 06:00:00 4,0 2,4 0 0 N 15 -
17.10.2018 05:00:00 4,0 2,8 4 2 N 15 -
17.10.2018 04:00:00 4,0 2,4 0 0 N 15 -
17.10.2018 03:00:00 3,9 2,6 8 4 S 15 -
17.10.2018 02:00:00 4,0 2,8 11 6 SSW 15 -
17.10.2018 01:00:00 4,0 3,1 8 4 S 15 -
17.10.2018 00:00:00 4,0 3,3 8 4 SSW 15 -
16.10.2018 23:00:00 4,0 3,4 9 5 S 12 -
16.10.2018 22:00:00 4,2 3,6 11 6 SSW 0,6 -
16.10.2018 21:00:00 4,2 2,4 11 6 S 0,6 -
16.10.2018 20:00:00 4,7 3,2 11 6 SSW 25 -
16.10.2018 19:00:00 5,0 3,0 15 8 SW 30 0
16.10.2018 18:00:00 5,6 1,7 13 7 WSW 30 0
16.10.2018 17:00:00 6,7 1,0 11 6 WSW 30 0
16.10.2018 16:00:00 7,8 2,7 5 3 WSW 30 6
16.10.2018 15:00:00 8,0 2,5 9 5 SW 25 60
16.10.2018 14:00:00 7,3 2,6 8 4 SW 25 48
16.10.2018 13:00:00 6,4 3,6 5 3 WSW 25 24
16.10.2018 12:00:00 5,0 2,9 5 3 N 25 0
16.10.2018 11:00:00 4,3 2,5 5 3 N 30 0
16.10.2018 10:00:00 3,6 3,2 5 3 N 15 0
16.10.2018 09:00:00 2,8 2,5 5 3 NNW 15 0
16.10.2018 08:00:00 3,0 1,8 4 2 NNW 18 0
16.10.2018 07:00:00 2,8 2,2 4 2 NNW 15 -
16.10.2018 06:00:00 2,8 2,2 5 3 NNW 13 -
16.10.2018 05:00:00 2,8 2,4 4 2 S 13 -
16.10.2018 04:00:00 2,7 2,3 8 4 S 10 -
16.10.2018 03:00:00 2,6 2,0 11 6 S 10 -
16.10.2018 02:00:00 2,4 1,8 15 8 SW 10 -
16.10.2018 01:00:00 2,8 2,5 11 6 WSW 10 -
16.10.2018 00:00:00 3,0 3,0 11 6 S - -
15.10.2018 23:00:00 2,8 2,8 8 4 SW - -
15.10.2018 22:00:00 3,8 3,8 11 6 WSW - -
15.10.2018 21:00:00 4,0 4,0 22 12 S - -
15.10.2018 20:00:00 3,8 3,8 22 12 S 0,1 -
15.10.2018 19:00:00 4,4 3,7 24 13 S 0,9 0
15.10.2018 18:00:00 4,8 4,1 22 12 SSE 0,9 0
15.10.2018 17:00:00 5,4 3,6 21 11 SE 13 6
15.10.2018 16:00:00 6,2 3,5 21 11 SE 18 12
15.10.2018 15:00:00 6,8 4,3 18 10 SSE 20 12
15.10.2018 14:00:00 6,2 3,7 16 9 SSE 20 30
15.10.2018 13:00:00 6,0 4,5 18 10 SSE 10 0
15.10.2018 12:00:00 5,8 4,0 11 6 SSE 5 0
15.10.2018 11:00:00 6,0 4,0 16 9 SSE 10 0
15.10.2018 10:00:00 5,0 4,0 15 8 SSE 10 0
15.10.2018 09:00:00 4,4 3,8 18 10 SSE 10 24
15.10.2018 08:00:00 3,2 2,3 22 12 S 10 0
15.10.2018 07:00:00 4,0 2,8 18 10 S 10 -
15.10.2018 06:00:00 4,0 2,8 18 10 SSW 10 -
15.10.2018 05:00:00 4,0 2,8 18 10 S 10 -
15.10.2018 04:00:00 3,7 3,0 16 9 S 15 -
15.10.2018 03:00:00 3,6 3,3 18 10 S 15 -
15.10.2018 02:00:00 3,7 3,3 22 12 S 15 -
15.10.2018 01:00:00 3,7 3,3 21 11 SSE 15 -
15.10.2018 00:00:00 4,2 3,3 24 13 S 15 -
14.10.2018 23:00:00 4,6 3,1 22 12 S 18 -
14.10.2018 22:00:00 5,0 3,3 13 7 SSW 20 -
14.10.2018 21:00:00 5,2 3,2 15 8 SW 20 -
14.10.2018 20:00:00 5,4 2,2 15 8 SW 15 -
14.10.2018 19:00:00 5,8 1,7 15 8 SW 15 0
14.10.2018 18:00:00 7,2 1,5 18 10 SW 20 0
14.10.2018 17:00:00 8,4 2,2 22 12 SSW 30 54
14.10.2018 16:00:00 8,8 2,6 18 10 S 30 60
14.10.2018 15:00:00 8,8 3,2 15 8 S 30 60
14.10.2018 14:00:00 8,2 0,4 9 5 SSE 30 60
14.10.2018 13:00:00 7,8 -0,4 11 6 SSE 30 60
14.10.2018 12:00:00 7,4 0,8 13 7 SSE 35 60
14.10.2018 11:00:00 6,4 0,7 15 8 SSE 35 60
14.10.2018 10:00:00 6,0 1,0 5 3 SSE 30 60
14.10.2018 09:00:00 4,8 -0,4 8 4 SSE 30 48
14.10.2018 08:00:00 4,0 -2,2 13 7 SSW 30 0
14.10.2018 07:00:00 4,0 -1,8 11 6 SSW 25 -
14.10.2018 06:00:00 4,0 -1,4 13 7 SSE 25 -
14.10.2018 05:00:00 4,6 -2,5 13 7 S 25 -
14.10.2018 04:00:00 4,8 -3,7 18 10 SSE 30 -
14.10.2018 03:00:00 5,0 -3,5 18 10 SSE 30 -
14.10.2018 02:00:00 4,8 -3,7 18 10 S 30 -
14.10.2018 01:00:00 5,0 -0,4 18 10 SSE 30 -
14.10.2018 00:00:00 5,0 -0,4 15 8 S 30 -
13.10.2018 23:00:00 5,2 -0,2 18 10 S 30 -
13.10.2018 22:00:00 5,8 -0,9 22 12 S 30 -
13.10.2018 21:00:00 6,2 -0,5 24 13 SSE 30 -
13.10.2018 20:00:00 6,2 2,8 18 10 S 25 -
13.10.2018 19:00:00 7,4 3,5 22 12 S 25 24
13.10.2018 18:00:00 9,4 2,5 21 11 SSE 35 60
13.10.2018 17:00:00 10,4 3,0 16 9 SSW 35 60
13.10.2018 16:00:00 10,8 2,4 15 8 S 35 60
13.10.2018 15:00:00 10,6 -1,8 13 7 SSE 35 60
13.10.2018 14:00:00 10,2 -0,3 5 3 SSW 35 60
13.10.2018 13:00:00 9,8 4,2 8 4 SE 30 60
13.10.2018 12:00:00 9,6 5,2 8 4 NNE 30 60
13.10.2018 11:00:00 9,4 4,8 8 4 NNE 30 60
13.10.2018 10:00:00 8,4 3,5 9 5 ENE 30 60
13.10.2018 09:00:00 7,6 2,7 9 5 NNE 30 60
13.10.2018 08:00:00 7,0 2,5 8 4 NNE 20 -
13.10.2018 07:00:00 7,0 2,5 5 3 NNE 20 -
13.10.2018 06:00:00 7,0 2,5 8 4 NNE 20 -
13.10.2018 05:00:00 7,0 1,9 0 0 N 20 -
13.10.2018 04:00:00 7,0 2,3 5 3 SSW 20 -
13.10.2018 03:00:00 7,0 1,9 5 3 SSW 25 -
13.10.2018 02:00:00 6,6 1,7 5 3 S 25 -
13.10.2018 01:00:00 6,8 2,1 5 3 SSW 25 -
13.10.2018 00:00:00 7,0 1,7 8 4 S 25 -
12.10.2018 23:00:00 6,8 2,5 8 4 S 25 -
12.10.2018 22:00:00 6,8 2,5 9 5 SSE 30 -
12.10.2018 21:00:00 7,6 2,7 8 4 SSE 35 -
12.10.2018 20:00:00 8,0 3,3 11 6 ESE 30 -
12.10.2018 19:00:00 8,2 3,8 13 7 ESE 30 6
12.10.2018 18:00:00 8,8 3,2 9 5 E 40 60
12.10.2018 17:00:00 9,2 4,0 0 0 N 40 60
12.10.2018 16:00:00 9,2 4,4 8 4 NNE 50 60
12.10.2018 15:00:00 9,0 3,0 4 2 N 40 60
12.10.2018 14:00:00 9,0 1,7 4 2 N 40 60
12.10.2018 13:00:00 8,4 6,5 8 4 E 20 60
12.10.2018 12:00:00 8,2 6,7 4 2 E 20 60
12.10.2018 11:00:00 7,4 6,0 5 3 E 15 60
12.10.2018 10:00:00 7,0 4,8 5 3 NNE 10 60
12.10.2018 09:00:00 6,0 3,7 5 3 NNE 50 18
12.10.2018 08:00:00 5,0 2,4 8 4 NNE 40 0
12.10.2018 07:00:00 4,7 3,2 0 0 N 30 -
12.10.2018 06:00:00 5,0 3,7 9 5 SSW 15 -
12.10.2018 05:00:00 5,1 3,9 9 5 S 15 -
12.10.2018 04:00:00 5,0 3,7 11 6 SSW 15 -
12.10.2018 03:00:00 5,0 3,5 13 7 S 18 -
12.10.2018 02:00:00 4,9 3,6 16 9 S 15 -
12.10.2018 01:00:00 5,0 4,0 15 8 S 15 -
12.10.2018 00:00:00 5,0 4,3 15 8 S 0,9 -
11.10.2018 23:00:00 5,1 3,9 15 8 S 0,9 -
11.10.2018 22:00:00 5,4 3,7 15 8 S 15 -
11.10.2018 21:00:00 5,4 2,9 15 8 S 15 -
11.10.2018 20:00:00 6,0 3,3 18 10 S 20 0
11.10.2018 19:00:00 6,2 2,8 21 11 SSW 20 0
11.10.2018 18:00:00 7,2 2,1 15 8 S 20 0
11.10.2018 17:00:00 8,0 3,1 15 8 S 20 0
11.10.2018 16:00:00 8,4 3,5 15 8 SSW 20 0
11.10.2018 15:00:00 8,4 4,0 18 10 S 20 0
11.10.2018 14:00:00 7,9 3,8 18 10 S 30 6
11.10.2018 13:00:00 6,9 4,2 22 12 SSE 30 0
11.10.2018 12:00:00 5,6 3,8 22 12 S 20 0
11.10.2018 11:00:00 5,0 1,1 22 12 S 25 12
11.10.2018 10:00:00 4,2 1,1 18 10 S 20 0
11.10.2018 09:00:00 3,8 1,2 21 11 S 25 0
11.10.2018 08:00:00 3,2 0,8 21 11 S 25 6

tt = temperature
td = dewpoint
ff = wind speed
dd = wind direction
vv = visibility
sd = sunshine duration

Next stations